createdAt,value
2018-01-26T00:01:10.655Z,83.70
2018-01-26T00:03:38.164Z,83.60
2018-01-26T00:06:05.675Z,83.60
2018-01-26T00:08:33.180Z,83.50
2018-01-26T00:11:00.705Z,83.30
2018-01-26T00:13:28.210Z,83.70
2018-01-26T00:15:55.731Z,83.70
2018-01-26T00:18:23.242Z,83.90
2018-01-26T00:20:51.512Z,84.10
2018-01-26T00:23:19.045Z,84.00
2018-01-26T00:25:46.543Z,84.30
2018-01-26T00:28:14.051Z,84.50
2018-01-26T00:30:41.589Z,84.60
2018-01-26T00:33:09.111Z,84.50
2018-01-26T00:35:37.383Z,84.70
2018-01-26T00:38:04.906Z,84.70
2018-01-26T00:40:32.411Z,84.60
2018-01-26T00:43:00.689Z,84.90
2018-01-26T00:45:28.975Z,85.00
2018-01-26T00:47:56.479Z,84.80
2018-01-26T00:50:23.983Z,84.80
2018-01-26T00:52:51.523Z,84.60
2018-01-26T00:55:19.049Z,84.40
2018-01-26T00:57:46.559Z,84.20
2018-01-26T01:00:14.089Z,84.40
2018-01-26T01:02:41.608Z,84.20
2018-01-26T01:05:09.127Z,84.40
2018-01-26T01:07:37.419Z,84.50
2018-01-26T01:10:04.919Z,84.50
2018-01-26T01:12:32.431Z,84.50
2018-01-26T01:15:00.719Z,84.20
2018-01-26T01:17:28.251Z,84.10
2018-01-26T01:19:55.759Z,84.20
2018-01-26T01:22:23.269Z,84.60
2018-01-26T01:24:51.544Z,84.70
2018-01-26T01:27:19.823Z,84.80
2018-01-26T01:29:48.101Z,85.10
2018-01-26T01:32:16.375Z,84.90
2018-01-26T01:34:44.651Z,84.90
2018-01-26T01:37:12.937Z,84.90
2018-01-26T01:39:41.209Z,85.10
2018-01-26T01:42:09.489Z,85.70
2018-01-26T01:44:37.855Z,85.10
2018-01-26T01:47:05.377Z,85.00
2018-01-26T01:49:32.885Z,85.10
2018-01-26T01:52:00.407Z,84.80
2018-01-26T01:54:27.913Z,84.90
2018-01-26T01:56:55.417Z,85.10
2018-01-26T01:59:22.975Z,85.10
2018-01-26T02:01:50.435Z,85.00
2018-01-26T02:04:17.937Z,84.90
2018-01-26T02:06:46.215Z,85.00
2018-01-26T02:09:14.494Z,85.10
2018-01-26T02:11:42.763Z,84.90
2018-01-26T02:14:11.047Z,85.10
2018-01-26T02:16:39.359Z,85.40
2018-01-26T02:19:06.860Z,85.30
2018-01-26T02:21:34.369Z,85.50
2018-01-26T02:24:01.871Z,85.50
2018-01-26T02:26:29.381Z,85.90
2018-01-26T02:28:56.892Z,86.00
2018-01-26T02:31:24.409Z,86.00
2018-01-26T02:33:51.907Z,86.30
2018-01-26T02:36:19.629Z,86.30
2018-01-26T02:38:47.139Z,86.40
2018-01-26T02:41:15.402Z,86.70
2018-01-26T02:43:43.701Z,86.80
2018-01-26T02:46:11.977Z,86.90
2018-01-26T02:48:40.260Z,87.00
2018-01-26T02:51:08.542Z,87.30
2018-01-26T02:53:36.059Z,87.20
2018-01-26T02:56:03.573Z,87.60
2018-01-26T02:58:31.091Z,87.50
2018-01-26T03:00:58.603Z,87.60
2018-01-26T03:03:26.107Z,87.70
2018-01-26T03:05:53.631Z,87.80
2018-01-26T03:08:21.136Z,87.90
2018-01-26T03:10:49.418Z,88.60
2018-01-26T03:13:17.707Z,88.60
2018-01-26T03:15:45.219Z,88.60
2018-01-26T03:18:12.722Z,88.80
2018-01-26T03:20:40.243Z,88.60
2018-01-26T03:23:07.734Z,88.60
2018-01-26T03:25:36.003Z,89.10
2018-01-26T03:28:04.301Z,89.20
2018-01-26T03:30:31.809Z,89.20
2018-01-26T03:32:59.321Z,89.20
2018-01-26T03:35:26.835Z,89.20
2018-01-26T03:37:54.345Z,89.20
2018-01-26T03:40:22.615Z,89.40
2018-01-26T03:42:50.139Z,89.40
2018-01-26T03:45:17.647Z,89.50
2018-01-26T03:47:45.164Z,89.60
2018-01-26T03:50:13.457Z,89.80
2018-01-26T03:52:40.979Z,89.70
2018-01-26T03:55:08.509Z,89.80
2018-01-26T03:57:36.027Z,90.00
2018-01-26T04:00:04.299Z,90.00
2018-01-26T04:02:32.583Z,90.00
2018-01-26T04:05:00.878Z,90.00
2018-01-26T04:07:28.386Z,90.00
2018-01-26T04:09:55.903Z,90.10
2018-01-26T04:12:23.415Z,90.00
2018-01-26T04:14:50.921Z,90.00
2018-01-26T04:17:18.429Z,90.10
2018-01-26T04:19:46.709Z,90.10
2018-01-26T04:22:14.221Z,90.00
2018-01-26T04:24:41.725Z,90.00
2018-01-26T04:27:10.020Z,90.30
2018-01-26T04:29:38.420Z,90.10
2018-01-26T04:32:05.931Z,90.00
2018-01-26T04:34:33.485Z,90.10
2018-01-26T04:37:00.996Z,90.10
2018-01-26T04:39:28.501Z,90.00
2018-01-26T04:41:56.027Z,90.10
2018-01-26T04:44:23.523Z,90.10
2018-01-26T04:46:51.023Z,90.20
2018-01-26T04:49:18.543Z,90.20
2018-01-26T04:51:46.051Z,90.20
2018-01-26T04:54:13.556Z,90.10
2018-01-26T04:56:41.056Z,90.10
2018-01-26T04:59:08.563Z,90.20
2018-01-26T05:01:36.063Z,90.30
2018-01-26T05:04:04.423Z,90.30
2018-01-26T05:06:31.938Z,90.20
2018-01-26T05:08:59.437Z,90.30
2018-01-26T05:11:27.747Z,90.30
2018-01-26T05:13:55.255Z,90.20
2018-01-26T05:16:22.788Z,90.10
2018-01-26T05:18:50.300Z,90.20
2018-01-26T05:21:18.577Z,90.20
2018-01-26T05:23:46.853Z,90.20
2018-01-26T05:26:15.138Z,90.20
2018-01-26T05:28:42.652Z,90.20
2018-01-26T05:31:10.153Z,90.20
2018-01-26T05:33:37.667Z,90.20
2018-01-26T05:36:05.167Z,90.20
2018-01-26T05:38:33.435Z,90.20
2018-01-26T05:41:01.731Z,90.30
2018-01-26T05:43:29.243Z,90.20
2018-01-26T05:45:56.765Z,90.20
2018-01-26T05:48:24.303Z,90.10
2018-01-26T05:50:52.577Z,90.10
2018-01-26T05:53:20.913Z,90.10
2018-01-26T05:55:48.423Z,90.00
2018-01-26T05:58:15.927Z,90.00
2018-01-26T06:00:43.431Z,89.80
2018-01-26T06:03:10.958Z,90.00
2018-01-26T06:05:38.467Z,90.10
2018-01-26T06:08:05.988Z,90.10
2018-01-26T06:10:34.276Z,90.10
2018-01-26T06:13:02.557Z,90.00
2018-01-26T06:15:30.818Z,90.00
2018-01-26T06:17:59.105Z,90.00
2018-01-26T06:20:27.381Z,90.00
2018-01-26T06:22:55.799Z,90.00
2018-01-26T06:25:23.325Z,90.00
2018-01-26T06:27:51.611Z,90.00
2018-01-26T06:30:19.146Z,90.00
2018-01-26T06:32:46.659Z,89.90
2018-01-26T06:35:14.176Z,89.90
2018-01-26T06:37:42.454Z,89.80
2018-01-26T06:40:10.751Z,89.70
2018-01-26T06:42:38.259Z,89.70
2018-01-26T06:45:05.793Z,89.60
2018-01-26T06:47:33.297Z,89.60
2018-01-26T06:50:01.593Z,89.80
2018-01-26T06:52:29.117Z,89.70
2018-01-26T06:54:56.618Z,89.70
2018-01-26T06:57:24.141Z,89.60
2018-01-26T06:59:52.428Z,89.70
2018-01-26T07:02:20.721Z,89.30
2018-01-26T07:04:48.222Z,89.30
2018-01-26T07:07:15.741Z,89.40
2018-01-26T07:09:43.259Z,89.40
2018-01-26T07:12:10.773Z,89.40
2018-01-26T07:14:38.296Z,89.60
2018-01-26T07:17:05.813Z,89.40
2018-01-26T07:19:33.319Z,89.40
2018-01-26T07:22:01.619Z,89.70
2018-01-26T07:24:29.138Z,89.60
2018-01-26T07:26:56.658Z,89.40
2018-01-26T07:29:24.198Z,89.40
2018-01-26T07:31:51.721Z,89.50
2018-01-26T07:34:19.245Z,89.40
2018-01-26T07:36:46.760Z,89.60
2018-01-26T07:39:14.284Z,89.40
2018-01-26T07:41:41.810Z,89.30
2018-01-26T07:44:09.333Z,89.20
2018-01-26T07:46:36.847Z,89.30
2018-01-26T07:49:04.465Z,89.30
2018-01-26T07:51:32.011Z,89.10
2018-01-26T07:53:59.524Z,88.90
2018-01-26T07:56:27.034Z,88.70
2018-01-26T07:58:54.548Z,88.70
2018-01-26T08:01:22.047Z,88.70
2018-01-26T08:03:49.568Z,88.70
2018-01-26T08:06:17.099Z,88.70
2018-01-26T08:08:44.630Z,88.40
2018-01-26T08:11:12.144Z,88.10
2018-01-26T08:13:39.658Z,88.20
2018-01-26T08:16:07.930Z,88.30
2018-01-26T08:18:35.444Z,88.30
2018-01-26T08:21:03.029Z,88.30
2018-01-26T08:23:30.520Z,88.30
2018-01-26T08:25:58.053Z,88.10
2018-01-26T08:28:25.576Z,88.00
2018-01-26T08:30:53.081Z,88.00
2018-01-26T08:33:20.589Z,87.90
2018-01-26T08:35:48.122Z,88.00
2018-01-26T08:38:15.642Z,87.80
2018-01-26T08:40:43.168Z,87.80
2018-01-26T08:43:10.702Z,87.70
2018-01-26T08:45:38.238Z,87.60
2018-01-26T08:48:05.762Z,87.60
2018-01-26T08:50:33.275Z,87.70
2018-01-26T08:53:00.783Z,87.50
2018-01-26T08:55:33.834Z,86.80
2018-01-26T08:58:01.362Z,86.80
2018-01-26T09:00:28.883Z,86.60
2018-01-26T09:02:57.173Z,86.90
2018-01-26T09:05:25.466Z,86.70
2018-01-26T09:07:52.979Z,86.50
2018-01-26T09:10:20.487Z,86.20
2018-01-26T09:12:48.015Z,86.30
2018-01-26T09:15:16.308Z,86.20
2018-01-26T09:17:44.592Z,86.10
2018-01-26T09:20:12.116Z,86.10
2018-01-26T09:22:39.632Z,86.10
2018-01-26T09:25:07.149Z,86.00
2018-01-26T09:27:34.669Z,86.10
2018-01-26T09:30:02.184Z,85.90
2018-01-26T09:32:30.474Z,85.70
2018-01-26T09:34:58.003Z,85.60
2018-01-26T09:37:26.288Z,85.20
2018-01-26T09:39:54.575Z,84.50
2018-01-26T09:42:22.106Z,84.50
2018-01-26T09:44:49.645Z,84.60
2018-01-26T09:47:17.159Z,84.50
2018-01-26T09:49:44.679Z,84.60
2018-01-26T09:52:12.203Z,84.20
2018-01-26T09:54:40.820Z,83.90
2018-01-26T09:57:08.358Z,83.90
2018-01-26T09:59:35.863Z,83.50
2018-01-26T10:02:03.390Z,83.50
2018-01-26T10:04:30.912Z,84.30
2018-01-26T10:06:58.435Z,84.50
2018-01-26T10:09:26.732Z,83.10
2018-01-26T10:11:54.248Z,83.10
2018-01-26T10:14:21.753Z,83.20
2018-01-26T10:16:49.259Z,82.50
2018-01-26T10:19:16.776Z,83.10
2018-01-26T10:21:44.327Z,82.90
2018-01-26T10:24:11.841Z,82.60
2018-01-26T10:26:39.364Z,83.00
2018-01-26T10:29:06.861Z,83.10
2018-01-26T10:31:34.354Z,83.20
2018-01-26T10:34:01.957Z,83.30
2018-01-26T10:36:29.460Z,83.50
2018-01-26T10:38:57.740Z,83.80
2018-01-26T10:41:26.349Z,83.20
2018-01-26T10:43:53.857Z,83.20
2018-01-26T10:46:21.371Z,82.30
2018-01-26T10:48:48.899Z,82.30
2018-01-26T10:51:17.168Z,82.40
2018-01-26T10:53:44.678Z,82.30
2018-01-26T10:56:12.192Z,82.30
2018-01-26T10:58:40.480Z,82.70
2018-01-26T11:01:07.984Z,82.70
2018-01-26T11:03:35.496Z,82.10
2018-01-26T11:06:03.024Z,82.30
2018-01-26T11:08:30.529Z,81.90
2018-01-26T11:10:58.052Z,82.30
2018-01-26T11:13:25.556Z,82.20
2018-01-26T11:15:53.073Z,82.00
2018-01-26T11:18:21.366Z,82.90
2018-01-26T11:20:48.875Z,82.20
2018-01-26T11:23:16.380Z,82.00
2018-01-26T11:25:43.898Z,81.90
2018-01-26T11:28:11.404Z,81.90
2018-01-26T11:30:38.900Z,82.00
2018-01-26T11:33:06.408Z,82.00
2018-01-26T11:35:33.916Z,81.80
2018-01-26T11:38:01.426Z,81.80
2018-01-26T11:40:28.954Z,81.80
2018-01-26T11:42:56.454Z,81.70
2018-01-26T11:45:23.980Z,81.90
2018-01-26T11:47:51.502Z,81.60
2018-01-26T11:50:19.004Z,81.30
2018-01-26T11:52:47.284Z,81.20
2018-01-26T11:55:15.560Z,81.30
2018-01-26T11:57:43.064Z,81.40
2018-01-26T12:00:10.575Z,81.50
2018-01-26T12:02:38.090Z,81.00
2018-01-26T12:05:05.588Z,81.10
2018-01-26T12:07:33.095Z,81.00
2018-01-26T12:10:00.646Z,80.80
2018-01-26T12:12:28.153Z,80.80
2018-01-26T12:14:55.656Z,80.80
2018-01-26T12:17:23.170Z,80.80
2018-01-26T12:19:50.678Z,80.10
2018-01-26T12:22:18.188Z,80.80
2018-01-26T12:24:45.707Z,80.80
2018-01-26T12:27:13.221Z,80.50
2018-01-26T12:29:40.751Z,81.10
2018-01-26T12:32:08.297Z,80.90
2018-01-26T12:34:35.841Z,81.70
2018-01-26T12:37:03.342Z,81.50
2018-01-26T12:39:30.842Z,81.10
2018-01-26T12:41:58.353Z,81.10
2018-01-26T12:44:25.864Z,81.10
2018-01-26T12:46:53.425Z,81.20
2018-01-26T12:49:20.948Z,81.10
2018-01-26T12:51:48.820Z,81.40
2018-01-26T12:54:16.347Z,81.50
2018-01-26T12:56:43.912Z,81.40
2018-01-26T12:59:11.404Z,81.60
2018-01-26T13:01:38.940Z,81.70
2018-01-26T13:04:06.498Z,82.00
2018-01-26T13:06:34.332Z,82.10
2018-01-26T13:09:01.867Z,81.70
2018-01-26T13:11:29.659Z,81.60
2018-01-26T13:13:57.193Z,81.60
2018-01-26T13:16:24.768Z,81.70
2018-01-26T13:18:52.362Z,81.70
2018-01-26T13:21:19.882Z,81.40
2018-01-26T13:23:47.458Z,81.30
2018-01-26T13:26:15.012Z,81.40
2018-01-26T13:28:42.556Z,81.00
2018-01-26T13:31:10.094Z,81.00
2018-01-26T13:33:37.672Z,81.50
2018-01-26T13:36:05.269Z,81.40
2018-01-26T13:38:32.873Z,81.70
2018-01-26T13:41:01.560Z,81.60
2018-01-26T13:43:29.106Z,81.40
2018-01-26T13:45:56.715Z,81.30
2018-01-26T13:48:24.244Z,81.60
2018-01-26T13:50:52.602Z,81.60
2018-01-26T13:53:20.920Z,81.90
2018-01-26T13:55:49.202Z,81.90
2018-01-26T13:58:16.741Z,81.80
2018-01-26T14:00:44.294Z,81.90
2018-01-26T14:03:11.873Z,81.80
2018-01-26T14:05:39.436Z,81.90
2018-01-26T14:08:06.976Z,82.00
2018-01-26T14:10:34.624Z,81.90
2018-01-26T14:13:02.200Z,82.00
2018-01-26T14:15:29.779Z,81.90
2018-01-26T14:17:57.298Z,81.90
2018-01-26T14:20:25.620Z,81.40
2018-01-26T14:22:53.212Z,81.40
2018-01-26T14:25:20.751Z,81.50
2018-01-26T14:27:48.638Z,81.50
2018-01-26T14:30:16.888Z,81.00
2018-01-26T14:32:44.412Z,80.90
2018-01-26T14:35:11.951Z,81.30
2018-01-26T14:37:40.296Z,81.50
2018-01-26T14:40:07.871Z,81.40
2018-01-26T14:42:35.416Z,81.50
2018-01-26T14:45:03.024Z,81.60
2018-01-26T14:47:30.577Z,82.00
2018-01-26T14:49:58.111Z,81.90
2018-01-26T14:52:25.678Z,82.10
2018-01-26T14:54:53.217Z,82.30
2018-01-26T14:57:20.762Z,82.30
2018-01-26T14:59:48.358Z,82.30
2018-01-26T15:02:16.730Z,82.20
2018-01-26T15:04:44.257Z,82.10
2018-01-26T15:07:11.833Z,82.10
2018-01-26T15:09:39.353Z,82.00
2018-01-26T15:12:06.892Z,82.00
2018-01-26T15:14:34.459Z,82.40
2018-01-26T15:17:02.000Z,82.40
2018-01-26T15:19:29.864Z,82.20
2018-01-26T15:21:57.448Z,82.50
2018-01-26T15:24:24.964Z,82.60
2018-01-26T15:26:52.504Z,82.70
2018-01-26T15:29:20.066Z,82.90
2018-01-26T15:31:47.630Z,83.00
2018-01-26T15:34:15.208Z,82.90
2018-01-26T15:36:42.750Z,82.80
2018-01-26T15:39:10.326Z,83.00
2018-01-26T15:41:37.936Z,83.40
2018-01-26T15:44:05.478Z,82.80
2018-01-26T15:46:33.026Z,82.90
2018-01-26T15:49:01.364Z,82.90
2018-01-26T15:51:30.026Z,82.80
2018-01-26T15:53:57.564Z,82.80
2018-01-26T15:56:25.098Z,82.90
2018-01-26T15:58:52.675Z,83.10
2018-01-26T16:01:20.986Z,82.90
2018-01-26T16:03:48.529Z,82.90
2018-01-26T16:06:16.086Z,82.90
2018-01-26T16:08:43.608Z,83.30
2018-01-26T16:11:11.104Z,83.60
2018-01-26T16:13:38.626Z,83.70
2018-01-26T16:16:06.130Z,83.90
2018-01-26T16:18:33.645Z,84.00
2018-01-26T16:21:03.100Z,84.10
2018-01-26T16:23:30.614Z,84.10
2018-01-26T16:25:58.117Z,84.10
2018-01-26T16:28:25.638Z,84.10
2018-01-26T16:30:53.157Z,84.10
2018-01-26T16:33:20.667Z,84.10
2018-01-26T16:35:48.196Z,84.30
2018-01-26T16:38:15.724Z,84.30
2018-01-26T16:40:43.239Z,84.40
2018-01-26T16:43:10.762Z,84.50
2018-01-26T16:45:38.268Z,84.30
2018-01-26T16:48:05.784Z,84.30
2018-01-26T16:50:33.288Z,84.30
2018-01-26T16:53:00.797Z,84.50
2018-01-26T16:55:28.307Z,84.40
2018-01-26T16:57:56.593Z,84.90
2018-01-26T17:00:24.121Z,84.80
2018-01-26T17:02:52.395Z,85.00
2018-01-26T17:05:20.670Z,85.10
2018-01-26T17:07:48.987Z,85.20
2018-01-26T17:10:16.510Z,85.00
2018-01-26T17:12:44.027Z,85.20
2018-01-26T17:15:11.547Z,85.10
2018-01-26T17:17:39.079Z,85.80
2018-01-26T17:20:06.591Z,85.10
2018-01-26T17:22:34.091Z,85.00
2018-01-26T17:25:02.377Z,85.30
2018-01-26T17:27:30.663Z,85.20
2018-01-26T17:29:58.170Z,85.20
2018-01-26T17:32:25.764Z,85.40
2018-01-26T17:34:53.229Z,85.40
2018-01-26T17:37:21.516Z,85.50
2018-01-26T17:39:49.785Z,85.70
2018-01-26T17:42:18.062Z,85.90
2018-01-26T17:44:46.343Z,86.00
2018-01-26T17:47:14.628Z,85.90
2018-01-26T17:49:42.144Z,85.90
2018-01-26T17:52:09.659Z,86.00
2018-01-26T17:54:37.186Z,85.90
2018-01-26T17:57:05.484Z,86.10
2018-01-26T17:59:32.992Z,85.90
2018-01-26T18:02:00.527Z,86.00
2018-01-26T18:04:28.034Z,86.10
2018-01-26T18:06:55.586Z,86.00
2018-01-26T18:09:23.115Z,86.00
2018-01-26T18:11:50.642Z,85.80
2018-01-26T18:14:18.159Z,85.80
2018-01-26T18:16:45.720Z,85.90
2018-01-26T18:19:13.232Z,85.80
2018-01-26T18:21:40.731Z,85.60
2018-01-26T18:24:08.268Z,85.70
2018-01-26T18:26:35.769Z,85.60
2018-01-26T18:29:04.056Z,85.20
2018-01-26T18:31:31.608Z,85.20
2018-01-26T18:33:59.146Z,85.10
2018-01-26T18:36:26.649Z,85.00
2018-01-26T18:38:54.198Z,85.10
2018-01-26T18:41:21.711Z,85.20
2018-01-26T18:43:49.220Z,85.20
2018-01-26T18:46:16.747Z,85.30
2018-01-26T18:48:44.256Z,85.40
2018-01-26T18:51:11.769Z,85.50
2018-01-26T18:53:40.071Z,85.30
2018-01-26T18:56:07.583Z,85.30
2018-01-26T18:58:35.107Z,85.30
2018-01-26T19:01:02.629Z,85.40
2018-01-26T19:03:30.900Z,85.80
2018-01-26T19:05:59.183Z,85.90
2018-01-26T19:08:27.469Z,85.80
2018-01-26T19:10:54.978Z,85.70
2018-01-26T19:13:22.504Z,85.90
2018-01-26T19:15:50.016Z,86.10
2018-01-26T19:18:18.327Z,86.60
2018-01-26T19:20:45.844Z,86.50
2018-01-26T19:23:13.376Z,87.00
2018-01-26T19:25:40.902Z,87.10
2018-01-26T19:28:08.408Z,87.00
2018-01-26T19:30:35.935Z,87.30
2018-01-26T19:33:03.445Z,87.30
2018-01-26T19:35:30.956Z,87.60
2018-01-26T19:37:58.494Z,87.70
2018-01-26T19:40:26.020Z,87.80
2018-01-26T19:42:53.544Z,87.80
2018-01-26T19:45:21.091Z,88.10
2018-01-26T19:47:48.599Z,88.00
2018-01-26T19:50:16.883Z,88.10
2018-01-26T19:52:45.208Z,88.20
2018-01-26T19:55:12.747Z,88.00
2018-01-26T19:57:40.263Z,88.20
2018-01-26T20:00:07.782Z,88.20
2018-01-26T20:02:35.312Z,88.20
2018-01-26T20:05:35.283Z,88.20
2018-01-26T20:08:20.228Z,88.30
2018-01-26T20:10:47.752Z,88.20
2018-01-26T20:13:21.599Z,88.30
2018-01-26T20:15:49.121Z,88.20
2018-01-26T20:18:16.661Z,88.30
2018-01-26T20:20:44.958Z,88.80
2018-01-26T20:23:12.481Z,88.70
2018-01-26T20:25:39.990Z,88.80
2018-01-26T20:28:07.506Z,89.00
2018-01-26T20:30:35.031Z,88.90
2018-01-26T20:33:02.588Z,89.00
2018-01-26T20:35:30.106Z,88.90
2018-01-26T20:37:58.395Z,88.90
2018-01-26T20:40:26.694Z,89.00
2018-01-26T20:42:54.187Z,88.90
2018-01-26T20:45:21.707Z,89.10
2018-01-26T20:47:49.245Z,89.10
2018-01-26T20:50:16.771Z,89.20
2018-01-26T20:52:44.299Z,89.20
2018-01-26T20:55:11.813Z,89.30
2018-01-26T20:57:40.088Z,89.60
2018-01-26T21:00:08.384Z,89.60
2018-01-26T21:02:35.902Z,89.50
2018-01-26T21:05:03.409Z,89.60
2018-01-26T21:07:30.947Z,89.90
2018-01-26T21:09:58.524Z,90.00
2018-01-26T21:12:26.090Z,90.10
2018-01-26T21:14:53.691Z,90.20
2018-01-26T21:17:21.189Z,90.30
2018-01-26T21:19:48.703Z,90.40
2018-01-26T21:22:16.281Z,90.50
2018-01-26T21:24:43.794Z,90.50
2018-01-26T21:27:11.316Z,90.60
2018-01-26T21:29:38.842Z,90.60
2018-01-26T21:32:06.355Z,90.60
2018-01-26T21:34:33.880Z,90.60
2018-01-26T21:37:01.424Z,90.60
2018-01-26T21:39:29.835Z,90.70
2018-01-26T21:41:57.351Z,90.70
2018-01-26T21:44:24.885Z,90.80
2018-01-26T21:46:52.412Z,90.80
2018-01-26T21:49:19.951Z,90.90
2018-01-26T21:51:47.465Z,90.90
2018-01-26T21:54:14.992Z,90.90
2018-01-26T21:56:42.542Z,90.80
2018-01-26T21:59:10.130Z,90.80
2018-01-26T22:01:37.684Z,90.90
2018-01-26T22:04:05.213Z,90.90
2018-01-26T22:06:38.280Z,90.90
2018-01-26T22:09:05.829Z,90.90
2018-01-26T22:11:33.383Z,90.90
2018-01-26T22:14:00.892Z,90.90
2018-01-26T22:16:28.424Z,91.00
2018-01-26T22:18:55.931Z,90.90
2018-01-26T22:21:23.460Z,90.90
2018-01-26T22:23:50.986Z,91.00
2018-01-26T22:26:18.492Z,91.00
2018-01-26T22:28:46.007Z,91.10
2018-01-26T22:31:13.512Z,91.10
2018-01-26T22:33:41.032Z,91.00
2018-01-26T22:36:08.563Z,91.10
2018-01-26T22:38:36.076Z,91.10
2018-01-26T22:41:03.587Z,91.10
2018-01-26T22:43:31.133Z,91.00
2018-01-26T22:45:58.639Z,91.10
2018-01-26T22:48:26.907Z,91.00
2018-01-26T22:50:54.439Z,91.00
2018-01-26T22:53:21.949Z,91.00
2018-01-26T22:55:49.478Z,91.00
2018-01-26T22:58:16.987Z,91.10
2018-01-26T23:00:44.501Z,91.00
2018-01-26T23:03:12.017Z,91.10
2018-01-26T23:05:39.553Z,91.10
2018-01-26T23:08:07.071Z,91.10
2018-01-26T23:10:34.600Z,91.10
2018-01-26T23:13:02.153Z,91.00
2018-01-26T23:15:29.650Z,91.00
2018-01-26T23:17:57.161Z,91.00
2018-01-26T23:20:24.685Z,91.00
2018-01-26T23:22:52.967Z,91.00
2018-01-26T23:25:20.477Z,91.00
2018-01-26T23:27:47.983Z,91.00
2018-01-26T23:30:15.483Z,90.90
2018-01-26T23:32:43.002Z,90.90
2018-01-26T23:35:10.537Z,90.90
2018-01-26T23:37:38.031Z,90.90
2018-01-26T23:40:05.539Z,90.80
2018-01-26T23:42:33.080Z,90.90
2018-01-26T23:45:00.601Z,90.90
2018-01-26T23:47:28.117Z,90.90
2018-01-26T23:49:55.635Z,90.90
2018-01-26T23:52:23.144Z,90.90
2018-01-26T23:54:50.647Z,90.90
2018-01-26T23:57:18.179Z,90.90
2018-01-26T23:59:46.467Z,90.90
